sensor_id;sensor_type;location;lat;lon;timestamp;temperature;humidity
25991;DHT22;13779;-33.886;151.198;2024-01-27T00:02:01;22.70;99.90
25991;DHT22;13779;-33.886;151.198;2024-01-27T00:04:32;22.70;99.90
25991;DHT22;13779;-33.886;151.198;2024-01-27T00:07:02;22.80;99.90
25991;DHT22;13779;-33.886;151.198;2024-01-27T00:09:32;22.80;99.90
25991;DHT22;13779;-33.886;151.198;2024-01-27T00:12:03;22.70;99.90
25991;DHT22;13779;-33.886;151.198;2024-01-27T00:14:33;22.70;99.90
25991;DHT22;13779;-33.886;151.198;2024-01-27T00:17:04;22.70;99.90
25991;DHT22;13779;-33.886;151.198;2024-01-27T00:19:34;22.70;99.90
25991;DHT22;13779;-33.886;151.198;2024-01-27T00:22:07;22.80;99.90
25991;DHT22;13779;-33.886;151.198;2024-01-27T00:24:38;22.80;99.90
25991;DHT22;13779;-33.886;151.198;2024-01-27T00:27:09;22.90;99.90
25991;DHT22;13779;-33.886;151.198;2024-01-27T00:29:39;22.90;99.90
25991;DHT22;13779;-33.886;151.198;2024-01-27T00:32:10;22.90;99.90
25991;DHT22;13779;-33.886;151.198;2024-01-27T00:34:40;22.80;99.90
25991;DHT22;13779;-33.886;151.198;2024-01-27T00:37:10;22.80;99.90
25991;DHT22;13779;-33.886;151.198;2024-01-27T00:39:40;22.80;99.90
25991;DHT22;13779;-33.886;151.198;2024-01-27T00:42:10;23.00;99.90
25991;DHT22;13779;-33.886;151.198;2024-01-27T00:44:41;23.00;99.90
25991;DHT22;13779;-33.886;151.198;2024-01-27T00:47:11;23.10;99.90
25991;DHT22;13779;-33.886;151.198;2024-01-27T00:49:42;23.20;99.90
25991;DHT22;13779;-33.886;151.198;2024-01-27T00:52:12;23.30;99.90
25991;DHT22;13779;-33.886;151.198;2024-01-27T00:54:42;23.30;99.90
25991;DHT22;13779;-33.886;151.198;2024-01-27T00:57:12;23.30;99.90
25991;DHT22;13779;-33.886;151.198;2024-01-27T00:59:43;23.40;99.90
25991;DHT22;13779;-33.886;151.198;2024-01-27T01:02:13;23.40;99.90
25991;DHT22;13779;-33.886;151.198;2024-01-27T01:04:43;23.30;99.90
25991;DHT22;13779;-33.886;151.198;2024-01-27T01:07:14;23.40;99.90
25991;DHT22;13779;-33.886;151.198;2024-01-27T01:09:44;23.40;99.90
25991;DHT22;13779;-33.886;151.198;2024-01-27T01:12:14;23.40;99.90
25991;DHT22;13779;-33.886;151.198;2024-01-27T01:14:45;23.40;99.90
25991;DHT22;13779;-33.886;151.198;2024-01-27T01:17:15;23.30;99.90
25991;DHT22;13779;-33.886;151.198;2024-01-27T01:19:45;23.30;99.90
25991;DHT22;13779;-33.886;151.198;2024-01-27T01:22:15;23.30;99.90
25991;DHT22;13779;-33.886;151.198;2024-01-27T01:24:46;23.20;99.90
25991;DHT22;13779;-33.886;151.198;2024-01-27T01:27:16;23.20;99.90
25991;DHT22;13779;-33.886;151.198;2024-01-27T01:29:48;23.20;99.90
25991;DHT22;13779;-33.886;151.198;2024-01-27T01:32:18;23.20;99.90
25991;DHT22;13779;-33.886;151.198;2024-01-27T01:34:48;23.20;99.90
25991;DHT22;13779;-33.886;151.198;2024-01-27T01:37:18;23.20;99.90
25991;DHT22;13779;-33.886;151.198;2024-01-27T01:39:49;23.20;99.90
25991;DHT22;13779;-33.886;151.198;2024-01-27T01:42:19;23.30;99.90
25991;DHT22;13779;-33.886;151.198;2024-01-27T01:44:53;23.40;99.90
25991;DHT22;13779;-33.886;151.198;2024-01-27T01:47:23;23.40;99.90
25991;DHT22;13779;-33.886;151.198;2024-01-27T01:49:53;23.40;99.90
25991;DHT22;13779;-33.886;151.198;2024-01-27T01:52:24;23.30;99.90
25991;DHT22;13779;-33.886;151.198;2024-01-27T01:54:55;23.30;99.90
25991;DHT22;13779;-33.886;151.198;2024-01-27T01:57:25;23.20;99.90
25991;DHT22;13779;-33.886;151.198;2024-01-27T01:59:55;23.20;99.90
25991;DHT22;13779;-33.886;151.198;2024-01-27T02:02:25;23.20;99.90
25991;DHT22;13779;-33.886;151.198;2024-01-27T02:04:56;23.20;99.90
25991;DHT22;13779;-33.886;151.198;2024-01-27T02:07:26;23.30;99.90
25991;DHT22;13779;-33.886;151.198;2024-01-27T02:09:56;23.30;99.90
25991;DHT22;13779;-33.886;151.198;2024-01-27T02:12:26;23.20;99.90
25991;DHT22;13779;-33.886;151.198;2024-01-27T02:14:57;23.40;99.90
25991;DHT22;13779;-33.886;151.198;2024-01-27T02:17:27;23.40;99.90
25991;DHT22;13779;-33.886;151.198;2024-01-27T02:19:57;23.50;99.90
25991;DHT22;13779;-33.886;151.198;2024-01-27T02:22:30;23.50;99.90
25991;DHT22;13779;-33.886;151.198;2024-01-27T02:25:02;23.60;99.90
25991;DHT22;13779;-33.886;151.198;2024-01-27T02:27:33;23.50;99.90
25991;DHT22;13779;-33.886;151.198;2024-01-27T02:30:04;23.40;99.90
25991;DHT22;13779;-33.886;151.198;2024-01-27T02:32:35;23.50;99.90
25991;DHT22;13779;-33.886;151.198;2024-01-27T02:35:05;23.50;99.90
25991;DHT22;13779;-33.886;151.198;2024-01-27T02:37:37;23.60;99.90
25991;DHT22;13779;-33.886;151.198;2024-01-27T02:40:08;23.70;99.90
25991;DHT22;13779;-33.886;151.198;2024-01-27T02:42:42;23.70;99.90
25991;DHT22;13779;-33.886;151.198;2024-01-27T02:45:12;23.80;99.90
25991;DHT22;13779;-33.886;151.198;2024-01-27T02:47:43;23.80;99.90
25991;DHT22;13779;-33.886;151.198;2024-01-27T02:50:14;23.70;99.90
25991;DHT22;13779;-33.886;151.198;2024-01-27T02:52:45;23.80;99.90
25991;DHT22;13779;-33.886;151.198;2024-01-27T02:55:15;23.90;99.90
25991;DHT22;13779;-33.886;151.198;2024-01-27T02:57:46;23.90;99.90
25991;DHT22;13779;-33.886;151.198;2024-01-27T03:00:17;23.90;99.90
25991;DHT22;13779;-33.886;151.198;2024-01-27T03:02:47;24.00;99.90
25991;DHT22;13779;-33.886;151.198;2024-01-27T03:05:18;23.90;99.90
25991;DHT22;13779;-33.886;151.198;2024-01-27T03:07:49;23.90;99.90
25991;DHT22;13779;-33.886;151.198;2024-01-27T03:10:20;23.90;99.90
25991;DHT22;13779;-33.886;151.198;2024-01-27T03:12:51;23.80;99.90
25991;DHT22;13779;-33.886;151.198;2024-01-27T03:15:21;23.80;99.90
25991;DHT22;13779;-33.886;151.198;2024-01-27T03:17:52;23.70;99.90
25991;DHT22;13779;-33.886;151.198;2024-01-27T03:20:22;23.70;99.90
25991;DHT22;13779;-33.886;151.198;2024-01-27T03:22:54;23.70;99.90
25991;DHT22;13779;-33.886;151.198;2024-01-27T03:25:24;23.70;99.90
25991;DHT22;13779;-33.886;151.198;2024-01-27T03:27:55;23.70;99.90
25991;DHT22;13779;-33.886;151.198;2024-01-27T03:30:25;23.60;99.90
25991;DHT22;13779;-33.886;151.198;2024-01-27T03:32:55;23.60;99.90
25991;DHT22;13779;-33.886;151.198;2024-01-27T03:35:26;23.60;99.90
25991;DHT22;13779;-33.886;151.198;2024-01-27T03:37:56;23.60;99.90
25991;DHT22;13779;-33.886;151.198;2024-01-27T03:40:29;23.50;99.90
25991;DHT22;13779;-33.886;151.198;2024-01-27T03:42:59;23.50;99.90
25991;DHT22;13779;-33.886;151.198;2024-01-27T03:45:29;23.50;99.90
25991;DHT22;13779;-33.886;151.198;2024-01-27T03:47:59;23.50;99.90
25991;DHT22;13779;-33.886;151.198;2024-01-27T03:50:29;23.50;99.90
25991;DHT22;13779;-33.886;151.198;2024-01-27T03:52:59;23.50;99.90
25991;DHT22;13779;-33.886;151.198;2024-01-27T03:55:30;23.40;99.90
25991;DHT22;13779;-33.886;151.198;2024-01-27T03:58:01;23.30;99.90
25991;DHT22;13779;-33.886;151.198;2024-01-27T04:00:31;23.20;99.90
25991;DHT22;13779;-33.886;151.198;2024-01-27T04:03:03;23.20;99.90
25991;DHT22;13779;-33.886;151.198;2024-01-27T04:05:33;23.20;99.90
25991;DHT22;13779;-33.886;151.198;2024-01-27T04:08:06;23.20;99.90
25991;DHT22;13779;-33.886;151.198;2024-01-27T04:10:40;23.20;99.90
25991;DHT22;13779;-33.886;151.198;2024-01-27T04:13:10;23.20;99.90
25991;DHT22;13779;-33.886;151.198;2024-01-27T04:15:40;23.10;99.90
25991;DHT22;13779;-33.886;151.198;2024-01-27T04:18:10;23.00;99.90
25991;DHT22;13779;-33.886;151.198;2024-01-27T04:20:41;23.10;99.90
25991;DHT22;13779;-33.886;151.198;2024-01-27T04:23:11;23.20;99.90
25991;DHT22;13779;-33.886;151.198;2024-01-27T04:25:42;23.30;99.90
25991;DHT22;13779;-33.886;151.198;2024-01-27T04:28:12;23.50;99.90
25991;DHT22;13779;-33.886;151.198;2024-01-27T04:30:42;23.70;99.90
25991;DHT22;13779;-33.886;151.198;2024-01-27T04:33:13;23.90;99.90
25991;DHT22;13779;-33.886;151.198;2024-01-27T04:35:44;23.90;99.90
25991;DHT22;13779;-33.886;151.198;2024-01-27T04:38:14;23.90;99.90
25991;DHT22;13779;-33.886;151.198;2024-01-27T04:40:44;23.90;99.90
25991;DHT22;13779;-33.886;151.198;2024-01-27T04:43:18;23.90;99.90
25991;DHT22;13779;-33.886;151.198;2024-01-27T04:45:49;23.90;99.90
25991;DHT22;13779;-33.886;151.198;2024-01-27T04:48:20;23.90;99.90
25991;DHT22;13779;-33.886;151.198;2024-01-27T04:50:50;23.90;99.90
25991;DHT22;13779;-33.886;151.198;2024-01-27T04:53:21;23.80;99.90
25991;DHT22;13779;-33.886;151.198;2024-01-27T04:55:51;23.80;99.90
25991;DHT22;13779;-33.886;151.198;2024-01-27T04:58:21;23.80;99.90
25991;DHT22;13779;-33.886;151.198;2024-01-27T05:00:51;23.90;99.90
25991;DHT22;13779;-33.886;151.198;2024-01-27T05:03:21;23.90;99.90
25991;DHT22;13779;-33.886;151.198;2024-01-27T05:05:52;24.00;99.90
25991;DHT22;13779;-33.886;151.198;2024-01-27T05:08:22;23.80;99.90
25991;DHT22;13779;-33.886;151.198;2024-01-27T05:10:52;23.80;99.90
25991;DHT22;13779;-33.886;151.198;2024-01-27T05:13:24;23.90;99.90
25991;DHT22;13779;-33.886;151.198;2024-01-27T05:15:55;24.00;99.90
25991;DHT22;13779;-33.886;151.198;2024-01-27T05:18:26;23.90;99.90
25991;DHT22;13779;-33.886;151.198;2024-01-27T05:20:56;24.00;99.90
25991;DHT22;13779;-33.886;151.198;2024-01-27T05:23:26;24.00;99.90
25991;DHT22;13779;-33.886;151.198;2024-01-27T05:25:59;24.00;99.90
25991;DHT22;13779;-33.886;151.198;2024-01-27T05:28:30;24.00;99.90
25991;DHT22;13779;-33.886;151.198;2024-01-27T05:31:01;24.10;99.90
25991;DHT22;13779;-33.886;151.198;2024-01-27T05:33:31;24.10;99.90
25991;DHT22;13779;-33.886;151.198;2024-01-27T05:36:02;24.20;99.90
25991;DHT22;13779;-33.886;151.198;2024-01-27T05:38:32;24.10;99.90
25991;DHT22;13779;-33.886;151.198;2024-01-27T05:41:03;24.00;99.90
25991;DHT22;13779;-33.886;151.198;2024-01-27T05:43:33;23.90;99.90
25991;DHT22;13779;-33.886;151.198;2024-01-27T05:46:04;23.90;99.90
25991;DHT22;13779;-33.886;151.198;2024-01-27T05:48:34;23.90;99.90
25991;DHT22;13779;-33.886;151.198;2024-01-27T05:51:04;23.80;99.90
25991;DHT22;13779;-33.886;151.198;2024-01-27T05:53:35;23.80;99.90
25991;DHT22;13779;-33.886;151.198;2024-01-27T05:56:06;23.70;99.90
25991;DHT22;13779;-33.886;151.198;2024-01-27T05:58:36;23.60;99.90
25991;DHT22;13779;-33.886;151.198;2024-01-27T06:01:06;23.50;99.90
25991;DHT22;13779;-33.886;151.198;2024-01-27T06:03:42;23.50;99.90
25991;DHT22;13779;-33.886;151.198;2024-01-27T06:06:13;23.50;99.90
25991;DHT22;13779;-33.886;151.198;2024-01-27T06:08:43;23.50;99.90
25991;DHT22;13779;-33.886;151.198;2024-01-27T06:11:14;23.50;99.90
25991;DHT22;13779;-33.886;151.198;2024-01-27T06:13:44;23.40;99.90
25991;DHT22;13779;-33.886;151.198;2024-01-27T06:16:18;23.40;99.90
25991;DHT22;13779;-33.886;151.198;2024-01-27T06:18:52;23.50;99.90
25991;DHT22;13779;-33.886;151.198;2024-01-27T06:21:24;23.60;99.90
25991;DHT22;13779;-33.886;151.198;2024-01-27T06:23:55;23.60;99.90
25991;DHT22;13779;-33.886;151.198;2024-01-27T06:26:26;23.60;99.90
25991;DHT22;13779;-33.886;151.198;2024-01-27T06:28:56;23.50;99.90
25991;DHT22;13779;-33.886;151.198;2024-01-27T06:31:26;23.50;99.90
25991;DHT22;13779;-33.886;151.198;2024-01-27T06:33:56;23.50;99.90
25991;DHT22;13779;-33.886;151.198;2024-01-27T06:36:26;23.50;99.90
25991;DHT22;13779;-33.886;151.198;2024-01-27T06:38:57;23.50;99.90
25991;DHT22;13779;-33.886;151.198;2024-01-27T06:41:27;23.40;99.90
25991;DHT22;13779;-33.886;151.198;2024-01-27T06:43:57;23.40;99.90
25991;DHT22;13779;-33.886;151.198;2024-01-27T06:46:27;23.50;99.90
25991;DHT22;13779;-33.886;151.198;2024-01-27T06:48:58;23.50;99.90
25991;DHT22;13779;-33.886;151.198;2024-01-27T06:51:28;23.60;99.90
25991;DHT22;13779;-33.886;151.198;2024-01-27T06:53:58;23.60;99.90
25991;DHT22;13779;-33.886;151.198;2024-01-27T06:56:28;23.60;99.90
25991;DHT22;13779;-33.886;151.198;2024-01-27T06:58:59;23.70;99.90
25991;DHT22;13779;-33.886;151.198;2024-01-27T07:01:29;23.70;99.90
25991;DHT22;13779;-33.886;151.198;2024-01-27T07:03:59;23.80;99.90
25991;DHT22;13779;-33.886;151.198;2024-01-27T07:06:29;23.80;99.90
25991;DHT22;13779;-33.886;151.198;2024-01-27T07:09:00;23.90;99.90
25991;DHT22;13779;-33.886;151.198;2024-01-27T07:11:30;23.90;99.90
25991;DHT22;13779;-33.886;151.198;2024-01-27T07:14:00;24.00;99.90
25991;DHT22;13779;-33.886;151.198;2024-01-27T07:16:30;23.90;99.90
25991;DHT22;13779;-33.886;151.198;2024-01-27T07:19:01;23.90;99.90
25991;DHT22;13779;-33.886;151.198;2024-01-27T07:21:32;23.90;99.90
25991;DHT22;13779;-33.886;151.198;2024-01-27T07:24:02;23.90;99.90
25991;DHT22;13779;-33.886;151.198;2024-01-27T07:26:32;24.00;99.90
25991;DHT22;13779;-33.886;151.198;2024-01-27T07:29:03;24.00;99.90
25991;DHT22;13779;-33.886;151.198;2024-01-27T07:31:33;24.00;99.90
25991;DHT22;13779;-33.886;151.198;2024-01-27T07:34:03;24.00;99.90
25991;DHT22;13779;-33.886;151.198;2024-01-27T07:36:35;24.00;99.90
25991;DHT22;13779;-33.886;151.198;2024-01-27T07:39:06;24.00;99.90
25991;DHT22;13779;-33.886;151.198;2024-01-27T07:41:36;24.00;99.90
25991;DHT22;13779;-33.886;151.198;2024-01-27T07:44:09;24.00;99.90
25991;DHT22;13779;-33.886;151.198;2024-01-27T07:46:41;24.10;99.90
25991;DHT22;13779;-33.886;151.198;2024-01-27T07:49:12;24.10;99.90
25991;DHT22;13779;-33.886;151.198;2024-01-27T07:51:44;24.10;99.90
25991;DHT22;13779;-33.886;151.198;2024-01-27T07:54:15;24.10;99.90
25991;DHT22;13779;-33.886;151.198;2024-01-27T07:56:45;24.10;99.90
25991;DHT22;13779;-33.886;151.198;2024-01-27T07:59:16;24.10;99.90
25991;DHT22;13779;-33.886;151.198;2024-01-27T08:01:47;24.10;99.90
25991;DHT22;13779;-33.886;151.198;2024-01-27T08:04:17;24.00;99.90
25991;DHT22;13779;-33.886;151.198;2024-01-27T08:06:49;23.90;99.90
25991;DHT22;13779;-33.886;151.198;2024-01-27T08:09:23;23.90;99.90
25991;DHT22;13779;-33.886;151.198;2024-01-27T08:11:54;23.70;99.90
25991;DHT22;13779;-33.886;151.198;2024-01-27T08:14:24;23.80;99.90
25991;DHT22;13779;-33.886;151.198;2024-01-27T08:16:54;23.70;99.90
25991;DHT22;13779;-33.886;151.198;2024-01-27T08:19:26;23.80;99.90
25991;DHT22;13779;-33.886;151.198;2024-01-27T08:21:56;23.80;99.90
25991;DHT22;13779;-33.886;151.198;2024-01-27T08:24:27;23.80;99.90
25991;DHT22;13779;-33.886;151.198;2024-01-27T08:26:58;23.80;99.90
25991;DHT22;13779;-33.886;151.198;2024-01-27T08:29:30;23.80;99.90
25991;DHT22;13779;-33.886;151.198;2024-01-27T08:32:00;23.80;99.90
25991;DHT22;13779;-33.886;151.198;2024-01-27T08:34:30;23.90;99.90
25991;DHT22;13779;-33.886;151.198;2024-01-27T08:37:01;23.90;99.90
25991;DHT22;13779;-33.886;151.198;2024-01-27T08:39:31;23.90;99.90
25991;DHT22;13779;-33.886;151.198;2024-01-27T08:42:02;23.90;99.90
25991;DHT22;13779;-33.886;151.198;2024-01-27T08:44:32;24.00;99.90
25991;DHT22;13779;-33.886;151.198;2024-01-27T08:47:03;24.00;99.90
25991;DHT22;13779;-33.886;151.198;2024-01-27T08:49:33;24.10;99.90
25991;DHT22;13779;-33.886;151.198;2024-01-27T08:52:04;24.00;99.90
25991;DHT22;13779;-33.886;151.198;2024-01-27T08:54:34;24.10;99.90
25991;DHT22;13779;-33.886;151.198;2024-01-27T08:57:05;24.00;99.90
25991;DHT22;13779;-33.886;151.198;2024-01-27T08:59:35;24.10;99.90
25991;DHT22;13779;-33.886;151.198;2024-01-27T09:02:05;24.00;99.90
25991;DHT22;13779;-33.886;151.198;2024-01-27T09:04:37;24.00;99.90
25991;DHT22;13779;-33.886;151.198;2024-01-27T09:07:08;24.00;99.90
25991;DHT22;13779;-33.886;151.198;2024-01-27T09:09:38;24.00;99.90
25991;DHT22;13779;-33.886;151.198;2024-01-27T09:12:08;24.00;99.90
25991;DHT22;13779;-33.886;151.198;2024-01-27T09:14:41;24.00;99.90
25991;DHT22;13779;-33.886;151.198;2024-01-27T09:17:11;24.00;99.90
25991;DHT22;13779;-33.886;151.198;2024-01-27T09:19:42;24.00;99.90
25991;DHT22;13779;-33.886;151.198;2024-01-27T09:22:13;24.00;99.90
25991;DHT22;13779;-33.886;151.198;2024-01-27T09:24:44;23.90;99.90
25991;DHT22;13779;-33.886;151.198;2024-01-27T09:27:14;23.90;99.90
25991;DHT22;13779;-33.886;151.198;2024-01-27T09:29:45;23.80;99.90
25991;DHT22;13779;-33.886;151.198;2024-01-27T09:32:16;23.90;99.90
25991;DHT22;13779;-33.886;151.198;2024-01-27T09:34:46;23.90;99.90
25991;DHT22;13779;-33.886;151.198;2024-01-27T09:37:17;23.80;99.90
25991;DHT22;13779;-33.886;151.198;2024-01-27T09:39:47;23.80;99.90
25991;DHT22;13779;-33.886;151.198;2024-01-27T09:42:20;23.80;99.90
25991;DHT22;13779;-33.886;151.198;2024-01-27T09:44:53;23.70;99.90
25991;DHT22;13779;-33.886;151.198;2024-01-27T09:47:24;23.80;99.90
25991;DHT22;13779;-33.886;151.198;2024-01-27T09:49:54;23.80;99.90
25991;DHT22;13779;-33.886;151.198;2024-01-27T09:52:25;23.80;99.90
25991;DHT22;13779;-33.886;151.198;2024-01-27T09:54:55;23.80;99.90
25991;DHT22;13779;-33.886;151.198;2024-01-27T09:57:25;23.80;99.90
25991;DHT22;13779;-33.886;151.198;2024-01-27T09:59:57;23.80;99.90
25991;DHT22;13779;-33.886;151.198;2024-01-27T10:02:29;23.90;99.90
25991;DHT22;13779;-33.886;151.198;2024-01-27T10:05:00;23.90;99.90
25991;DHT22;13779;-33.886;151.198;2024-01-27T10:07:31;23.80;99.90
25991;DHT22;13779;-33.886;151.198;2024-01-27T10:10:02;23.80;99.90
25991;DHT22;13779;-33.886;151.198;2024-01-27T10:12:33;23.80;99.90
25991;DHT22;13779;-33.886;151.198;2024-01-27T10:15:06;23.80;99.90
25991;DHT22;13779;-33.886;151.198;2024-01-27T10:17:36;23.80;99.90
25991;DHT22;13779;-33.886;151.198;2024-01-27T10:20:07;23.80;99.90
25991;DHT22;13779;-33.886;151.198;2024-01-27T10:22:40;23.90;99.90
25991;DHT22;13779;-33.886;151.198;2024-01-27T10:25:12;23.90;99.90
25991;DHT22;13779;-33.886;151.198;2024-01-27T10:27:43;23.90;99.90
25991;DHT22;13779;-33.886;151.198;2024-01-27T10:30:16;23.90;99.90
25991;DHT22;13779;-33.886;151.198;2024-01-27T10:32:57;23.90;99.90
25991;DHT22;13779;-33.886;151.198;2024-01-27T10:35:29;23.90;99.90
25991;DHT22;13779;-33.886;151.198;2024-01-27T10:37:59;23.90;99.90
25991;DHT22;13779;-33.886;151.198;2024-01-27T10:40:29;23.90;99.90
25991;DHT22;13779;-33.886;151.198;2024-01-27T10:43:05;23.90;99.90
25991;DHT22;13779;-33.886;151.198;2024-01-27T10:45:40;24.00;99.90
25991;DHT22;13779;-33.886;151.198;2024-01-27T10:48:11;23.90;99.90
25991;DHT22;13779;-33.886;151.198;2024-01-27T10:50:42;23.90;99.90
25991;DHT22;13779;-33.886;151.198;2024-01-27T10:53:22;24.00;99.90
25991;DHT22;13779;-33.886;151.198;2024-01-27T10:56:01;23.90;99.90
25991;DHT22;13779;-33.886;151.198;2024-01-27T10:58:36;23.90;99.90
25991;DHT22;13779;-33.886;151.198;2024-01-27T11:01:11;23.90;99.90
25991;DHT22;13779;-33.886;151.198;2024-01-27T11:03:41;23.90;99.90
25991;DHT22;13779;-33.886;151.198;2024-01-27T11:06:13;23.90;99.90
25991;DHT22;13779;-33.886;151.198;2024-01-27T11:08:44;23.90;99.90
25991;DHT22;13779;-33.886;151.198;2024-01-27T11:11:16;23.90;99.90
25991;DHT22;13779;-33.886;151.198;2024-01-27T11:13:46;23.90;99.90
25991;DHT22;13779;-33.886;151.198;2024-01-27T11:16:18;23.90;99.90
25991;DHT22;13779;-33.886;151.198;2024-01-27T11:18:49;23.90;99.90
25991;DHT22;13779;-33.886;151.198;2024-01-27T11:21:19;23.90;99.90
25991;DHT22;13779;-33.886;151.198;2024-01-27T11:23:50;23.90;99.90
25991;DHT22;13779;-33.886;151.198;2024-01-27T11:26:22;23.90;99.90
25991;DHT22;13779;-33.886;151.198;2024-01-27T11:28:53;23.90;99.90
25991;DHT22;13779;-33.886;151.198;2024-01-27T11:31:23;23.80;99.90
25991;DHT22;13779;-33.886;151.198;2024-01-27T11:33:53;23.90;99.90
25991;DHT22;13779;-33.886;151.198;2024-01-27T11:36:24;23.90;99.90
25991;DHT22;13779;-33.886;151.198;2024-01-27T11:38:54;23.90;99.90
25991;DHT22;13779;-33.886;151.198;2024-01-27T11:41:30;23.90;99.90
25991;DHT22;13779;-33.886;151.198;2024-01-27T11:44:00;23.80;99.90
25991;DHT22;13779;-33.886;151.198;2024-01-27T11:46:30;23.80;99.90
25991;DHT22;13779;-33.886;151.198;2024-01-27T11:49:01;23.90;99.90
25991;DHT22;13779;-33.886;151.198;2024-01-27T11:51:31;23.90;99.90
25991;DHT22;13779;-33.886;151.198;2024-01-27T11:54:02;23.90;99.90
25991;DHT22;13779;-33.886;151.198;2024-01-27T11:56:32;23.90;99.90
25991;DHT22;13779;-33.886;151.198;2024-01-27T11:59:02;23.90;99.90
25991;DHT22;13779;-33.886;151.198;2024-01-27T12:01:32;23.90;99.90
25991;DHT22;13779;-33.886;151.198;2024-01-27T12:04:05;23.90;99.90
25991;DHT22;13779;-33.886;151.198;2024-01-27T12:06:35;23.80;99.90
25991;DHT22;13779;-33.886;151.198;2024-01-27T12:09:07;23.80;99.90
25991;DHT22;13779;-33.886;151.198;2024-01-27T12:11:41;23.80;99.90
25991;DHT22;13779;-33.886;151.198;2024-01-27T12:14:11;23.80;99.90
25991;DHT22;13779;-33.886;151.198;2024-01-27T12:16:41;23.70;99.90
25991;DHT22;13779;-33.886;151.198;2024-01-27T12:19:13;23.70;99.90
25991;DHT22;13779;-33.886;151.198;2024-01-27T12:21:50;23.70;99.90
25991;DHT22;13779;-33.886;151.198;2024-01-27T12:24:20;23.70;99.90
25991;DHT22;13779;-33.886;151.198;2024-01-27T12:26:51;23.70;99.90
25991;DHT22;13779;-33.886;151.198;2024-01-27T12:29:22;23.70;99.90
25991;DHT22;13779;-33.886;151.198;2024-01-27T12:31:52;23.60;99.90
25991;DHT22;13779;-33.886;151.198;2024-01-27T12:34:24;23.60;99.90
25991;DHT22;13779;-33.886;151.198;2024-01-27T12:36:55;23.60;99.90
25991;DHT22;13779;-33.886;151.198;2024-01-27T12:39:27;23.60;99.90
25991;DHT22;13779;-33.886;151.198;2024-01-27T12:41:56;23.60;99.90
25991;DHT22;13779;-33.886;151.198;2024-01-27T12:44:27;23.60;99.90
25991;DHT22;13779;-33.886;151.198;2024-01-27T12:46:58;23.60;99.90
25991;DHT22;13779;-33.886;151.198;2024-01-27T12:49:30;23.60;99.90
25991;DHT22;13779;-33.886;151.198;2024-01-27T12:52:01;23.60;99.90
25991;DHT22;13779;-33.886;151.198;2024-01-27T12:54:32;23.60;99.90
25991;DHT22;13779;-33.886;151.198;2024-01-27T12:57:02;23.60;99.90
25991;DHT22;13779;-33.886;151.198;2024-01-27T12:59:33;23.50;99.90
25991;DHT22;13779;-33.886;151.198;2024-01-27T13:02:03;23.50;99.90
25991;DHT22;13779;-33.886;151.198;2024-01-27T13:04:34;23.50;99.90
25991;DHT22;13779;-33.886;151.198;2024-01-27T13:07:04;23.50;99.90
25991;DHT22;13779;-33.886;151.198;2024-01-27T13:09:36;23.50;99.90
25991;DHT22;13779;-33.886;151.198;2024-01-27T13:12:07;23.40;99.90
25991;DHT22;13779;-33.886;151.198;2024-01-27T13:14:38;23.40;99.90
25991;DHT22;13779;-33.886;151.198;2024-01-27T13:17:08;23.40;99.90
25991;DHT22;13779;-33.886;151.198;2024-01-27T13:19:39;23.30;99.90
25991;DHT22;13779;-33.886;151.198;2024-01-27T13:22:10;23.20;99.90
25991;DHT22;13779;-33.886;151.198;2024-01-27T13:24:42;23.20;99.90
25991;DHT22;13779;-33.886;151.198;2024-01-27T13:27:12;23.20;99.90
25991;DHT22;13779;-33.886;151.198;2024-01-27T13:29:42;23.20;99.90
25991;DHT22;13779;-33.886;151.198;2024-01-27T13:32:14;23.20;99.90
25991;DHT22;13779;-33.886;151.198;2024-01-27T13:34:44;23.10;99.90
25991;DHT22;13779;-33.886;151.198;2024-01-27T13:37:15;23.10;99.90
25991;DHT22;13779;-33.886;151.198;2024-01-27T13:39:45;23.10;99.90
25991;DHT22;13779;-33.886;151.198;2024-01-27T13:42:16;23.10;99.90
25991;DHT22;13779;-33.886;151.198;2024-01-27T13:44:47;23.10;99.90
25991;DHT22;13779;-33.886;151.198;2024-01-27T13:47:18;23.10;99.90
25991;DHT22;13779;-33.886;151.198;2024-01-27T13:49:48;23.00;99.90
25991;DHT22;13779;-33.886;151.198;2024-01-27T13:52:18;23.00;99.90
25991;DHT22;13779;-33.886;151.198;2024-01-27T13:54:48;23.00;99.90
25991;DHT22;13779;-33.886;151.198;2024-01-27T13:57:19;22.90;99.90
25991;DHT22;13779;-33.886;151.198;2024-01-27T13:59:49;22.90;99.90
25991;DHT22;13779;-33.886;151.198;2024-01-27T14:02:20;22.90;99.90
25991;DHT22;13779;-33.886;151.198;2024-01-27T14:04:50;22.90;99.90
25991;DHT22;13779;-33.886;151.198;2024-01-27T14:07:20;22.80;99.90
25991;DHT22;13779;-33.886;151.198;2024-01-27T14:09:52;22.80;99.90
25991;DHT22;13779;-33.886;151.198;2024-01-27T14:12:22;22.80;99.90
25991;DHT22;13779;-33.886;151.198;2024-01-27T14:14:52;22.80;99.90
25991;DHT22;13779;-33.886;151.198;2024-01-27T14:17:23;22.80;99.90
25991;DHT22;13779;-33.886;151.198;2024-01-27T14:19:53;22.80;99.90
25991;DHT22;13779;-33.886;151.198;2024-01-27T14:22:23;22.90;99.90
25991;DHT22;13779;-33.886;151.198;2024-01-27T14:24:55;22.90;99.90
25991;DHT22;13779;-33.886;151.198;2024-01-27T14:27:25;22.90;99.90
25991;DHT22;13779;-33.886;151.198;2024-01-27T14:29:56;22.80;99.90
25991;DHT22;13779;-33.886;151.198;2024-01-27T14:32:26;22.70;99.90
25991;DHT22;13779;-33.886;151.198;2024-01-27T14:34:57;22.70;99.90
25991;DHT22;13779;-33.886;151.198;2024-01-27T14:37:28;22.70;99.90
25991;DHT22;13779;-33.886;151.198;2024-01-27T14:39:58;22.60;99.90
25991;DHT22;13779;-33.886;151.198;2024-01-27T14:42:30;22.60;99.90
25991;DHT22;13779;-33.886;151.198;2024-01-27T14:45:02;22.60;99.90
25991;DHT22;13779;-33.886;151.198;2024-01-27T14:47:32;22.60;99.90
25991;DHT22;13779;-33.886;151.198;2024-01-27T14:50:04;22.60;99.90
25991;DHT22;13779;-33.886;151.198;2024-01-27T14:52:35;22.60;99.90
25991;DHT22;13779;-33.886;151.198;2024-01-27T14:55:07;22.60;99.90
25991;DHT22;13779;-33.886;151.198;2024-01-27T14:57:40;22.60;99.90
25991;DHT22;13779;-33.886;151.198;2024-01-27T15:00:12;22.50;99.90
25991;DHT22;13779;-33.886;151.198;2024-01-27T15:02:44;22.50;99.90
25991;DHT22;13779;-33.886;151.198;2024-01-27T15:05:15;22.30;99.90
25991;DHT22;13779;-33.886;151.198;2024-01-27T15:07:47;22.30;99.90
25991;DHT22;13779;-33.886;151.198;2024-01-27T15:10:18;22.30;99.90